Time;durP1;ratioP1;P1;durP2;ratioP2;P2;SDS_P1;SDS_P2;PMS_P1;PMS_P2;Temp;Humidity;BMP_temperature;BMP_pressure;BME280_temperature;BME280_humidity;BME280_pressure;Samples;Min_cycle;Max_cycle;Signal;HPM_P1;HPM_P2
2023/01/11 00:00:44;;;;;;;4.57;1.10;;;7.10;99.90;;;;;;4974484;28;20962;-72
2023/01/11 00:03:09;;;;;;;1.93;0.60;;;7.10;99.90;;;;;;4975672;28;20476;-72
2023/01/11 00:05:42;;;;;;;2.60;0.90;;;7.10;99.90;;;;;;4975645;28;20926;-72
2023/01/11 00:08:08;;;;;;;6.43;0.60;;;7.10;99.90;;;;;;4975640;28;20209;-73
2023/01/11 00:10:34;;;;;;;2.53;0.70;;;7.20;99.90;;;;;;4975443;28;20452;-72
2023/01/11 00:13:00;;;;;;;2.93;0.97;;;7.20;99.90;;;;;;4975128;28;20212;-72
2023/01/11 00:15:26;;;;;;;2.00;1.13;;;7.10;99.90;;;;;;4975435;28;20415;-72
2023/01/11 00:17:51;;;;;;;1.43;0.70;;;7.10;99.90;;;;;;4975416;28;20797;-72
2023/01/11 00:20:18;;;;;;;2.40;0.80;;;7.10;99.90;;;;;;4975234;28;20225;-72
2023/01/11 00:22:43;;;;;;;0.70;0.60;;;7.20;99.90;;;;;;4975101;28;20207;-73
2023/01/11 00:25:09;;;;;;;1.53;0.70;;;7.20;99.90;;;;;;4975430;28;20421;-72
2023/01/11 00:27:34;;;;;;;1.80;0.77;;;7.30;99.90;;;;;;4975020;28;20561;-72
2023/01/11 00:30:00;;;;;;;3.57;0.60;;;7.30;99.90;;;;;;4975231;28;20186;-73
2023/01/11 00:32:26;;;;;;;1.07;0.80;;;7.30;99.90;;;;;;4974670;28;20299;-72
2023/01/11 00:34:52;;;;;;;1.70;1.00;;;7.30;99.90;;;;;;4975075;28;20201;-72
2023/01/11 00:37:17;;;;;;;1.70;1.50;;;7.30;99.90;;;;;;4975036;28;20413;-72
2023/01/11 00:39:43;;;;;;;3.03;0.80;;;7.30;99.90;;;;;;4975021;28;20422;-72
2023/01/11 00:47:56;;;;;;;1.80;0.80;;;7.40;99.90;;;;;;4974964;28;20953;-72
2023/01/11 00:50:22;;;;;;;2.10;0.93;;;7.40;99.90;;;;;;4974674;28;20458;-73
2023/01/11 00:52:48;;;;;;;2.40;0.93;;;7.40;99.90;;;;;;4974504;28;20466;-73
2023/01/11 00:55:13;;;;;;;0.97;0.70;;;7.40;99.90;;;;;;4974792;28;20947;-72
2023/01/11 00:57:39;;;;;;;1.40;0.70;;;7.40;99.90;;;;;;4974779;28;20653;-73
2023/01/11 01:00:05;;;;;;;4.63;1.60;;;7.40;99.90;;;;;;4974999;28;20177;-72
2023/01/11 01:02:31;;;;;;;2.20;0.77;;;7.40;99.90;;;;;;4974260;28;20193;-72
2023/01/11 01:04:57;;;;;;;3.53;0.80;;;7.40;99.90;;;;;;4974503;28;20953;-72
2023/01/11 01:07:22;;;;;;;2.43;0.60;;;7.50;99.90;;;;;;4974713;28;20577;-73
2023/01/11 01:09:48;;;;;;;1.00;0.57;;;7.50;99.90;;;;;;4974365;28;20182;-73
2023/01/11 01:14:24;;;;;;;2.30;0.60;;;7.50;99.90;;;;;;4974406;28;20648;-72
2023/01/11 01:14:59;;;;;;;1.37;0.70;;;7.50;99.90;;;;;;4974520;28;20199;-74
2023/01/11 01:17:24;;;;;;;0.60;0.50;;;7.50;99.90;;;;;;4974302;28;20421;-73
2023/01/11 01:19:50;;;;;;;2.70;0.70;;;7.50;99.90;;;;;;4974460;28;20660;-73
2023/01/11 01:22:15;;;;;;;5.70;0.70;;;7.60;99.90;;;;;;4974110;28;20198;-72
2023/01/11 01:24:41;;;;;;;0.90;0.60;;;7.60;99.90;;;;;;4974266;28;20186;-73
2023/01/11 01:27:06;;;;;;;2.00;0.80;;;7.60;99.90;;;;;;4974241;28;20177;-73
2023/01/11 01:29:32;;;;;;;0.60;0.50;;;7.50;99.90;;;;;;4973973;28;20181;-72
2023/01/11 01:31:57;;;;;;;2.83;0.60;;;7.60;99.90;;;;;;4973579;28;20234;-72
2023/01/11 01:34:23;;;;;;;1.23;0.60;;;7.50;99.90;;;;;;4974182;28;20260;-72
2023/01/11 01:36:48;;;;;;;1.13;0.53;;;7.60;99.90;;;;;;4974067;28;20182;-73
2023/01/11 01:39:14;;;;;;;1.23;0.60;;;7.60;99.90;;;;;;4974041;28;20183;-72
2023/01/11 01:41:39;;;;;;;3.23;0.53;;;7.60;99.90;;;;;;4973699;28;20227;-73
2023/01/11 01:44:43;;;;;;;1.03;0.60;;;7.60;99.90;;;;;;4974018;28;20266;-72
2023/01/11 01:47:09;;;;;;;1.87;0.60;;;7.60;99.90;;;;;;4973871;28;20234;-72
2023/01/11 01:49:35;;;;;;;1.63;0.53;;;7.60;99.90;;;;;;4973541;28;20418;-72
2023/01/11 01:52:01;;;;;;;0.90;0.60;;;7.60;99.90;;;;;;4973530;28;20481;-72
2023/01/11 01:54:33;;;;;;;2.23;0.63;;;7.50;99.90;;;;;;4976099;28;20938;-73
2023/01/11 01:57:04;;;;;;;2.33;0.53;;;7.50;99.90;;;;;;4976038;28;20421;-73
2023/01/11 01:59:31;;;;;;;1.53;0.63;;;7.50;99.90;;;;;;4976275;28;20413;-73
2023/01/11 03:32:50;;;;;;;0.87;0.47;;;8.30;99.90;;;;;;5242251;23;20513;-71
2023/01/11 03:35:31;;;;;;;0.77;0.50;;;8.30;99.90;;;;;;5035603;28;20471;-71
2023/01/11 03:38:08;;;;;;;0.50;0.50;;;8.40;99.90;;;;;;5055256;28;20426;-71
2023/01/11 03:40:43;;;;;;;0.60;0.50;;;8.40;99.90;;;;;;5055162;28;20551;-70
2023/01/11 03:43:11;;;;;;;0.50;0.40;;;8.40;99.90;;;;;;5036313;28;20418;-71
2023/01/11 03:45:51;;;;;;;1.17;0.53;;;8.40;99.90;;;;;;5034604;28;20419;-73
2023/01/11 03:48:29;;;;;;;0.60;0.53;;;8.40;99.90;;;;;;5012350;28;20496;-71
2023/01/11 03:50:57;;;;;;;0.60;0.50;;;8.40;99.90;;;;;;4995474;28;20463;-71
2023/01/11 03:53:26;;;;;;;0.50;0.50;;;8.40;99.90;;;;;;4995169;28;20424;-70
2023/01/11 03:55:55;;;;;;;0.77;0.50;;;8.40;99.90;;;;;;4995517;28;20502;-71
2023/01/11 03:58:21;;;;;;;0.60;0.50;;;8.30;99.90;;;;;;4995392;28;20407;-71
2023/01/11 04:00:48;;;;;;;1.47;0.50;;;8.40;99.90;;;;;;4995223;28;20419;-71
2023/01/11 04:03:14;;;;;;;1.07;0.53;;;8.40;99.90;;;;;;4995074;28;20803;-72
2023/01/11 04:05:42;;;;;;;1.37;0.50;;;8.40;99.90;;;;;;4995575;28;20414;-71
2023/01/11 04:08:09;;;;;;;0.80;0.40;;;8.50;99.90;;;;;;4995153;28;20177;-72
2023/01/11 04:10:34;;;;;;;4.07;0.50;;;8.50;99.90;;;;;;4995222;28;20820;-70
2023/01/11 04:13:00;;;;;;;1.00;0.47;;;8.60;99.90;;;;;;4994838;28;20421;-72
2023/01/11 04:15:25;;;;;;;0.50;0.50;;;8.60;99.90;;;;;;4995403;28;20183;-72
2023/01/11 04:17:51;;;;;;;1.57;0.60;;;8.70;99.90;;;;;;4995245;28;20176;-72
2023/01/11 04:20:16;;;;;;;0.80;0.60;;;8.60;99.90;;;;;;4995113;28;20178;-71
2023/01/11 04:22:42;;;;;;;1.87;0.50;;;8.70;99.90;;;;;;4994852;28;20233;-72
2023/01/11 04:25:08;;;;;;;0.70;0.57;;;8.70;99.90;;;;;;4995078;28;20556;-72
2023/01/11 04:27:34;;;;;;;0.60;0.40;;;8.80;99.90;;;;;;4994635;28;20192;-72
2023/01/11 04:29:59;;;;;;;0.53;0.50;;;8.80;99.90;;;;;;4994615;28;20421;-72
2023/01/11 04:32:25;;;;;;;0.60;0.50;;;8.80;99.90;;;;;;4994477;28;20283;-73
2023/01/11 04:34:50;;;;;;;4.10;0.50;;;8.80;99.90;;;;;;4994847;28;20731;-71
2023/01/11 04:37:16;;;;;;;0.67;0.50;;;8.80;99.90;;;;;;4994573;28;20181;-72
2023/01/11 04:39:41;;;;;;;1.00;0.40;;;8.80;99.90;;;;;;4994581;28;20236;-72
2023/01/11 04:42:17;;;;;;;2.00;0.50;;;8.90;99.90;;;;;;4994199;28;20751;-72
2023/01/11 04:44:43;;;;;;;0.50;0.40;;;8.80;99.90;;;;;;4994343;28;20181;-73
2023/01/11 04:47:08;;;;;;;0.70;0.40;;;8.80;99.90;;;;;;4994125;28;20426;-72
2023/01/11 04:49:34;;;;;;;1.70;0.40;;;8.80;99.90;;;;;;4994321;28;20405;-72
2023/01/11 04:51:59;;;;;;;1.00;0.60;;;8.70;99.90;;;;;;4976399;28;20646;-72
2023/01/11 04:54:25;;;;;;;0.93;0.40;;;8.70;99.90;;;;;;4994699;28;20174;-72
2023/01/11 04:56:50;;;;;;;0.60;0.40;;;8.60;99.90;;;;;;4994424;28;20180;-73
2023/01/11 04:59:16;;;;;;;0.70;0.40;;;8.50;99.90;;;;;;4993994;28;20183;-70
2023/01/11 05:01:41;;;;;;;0.50;0.40;;;8.50;99.90;;;;;;4994005;28;20255;-72
2023/01/11 05:04:07;;;;;;;0.60;0.50;;;8.40;99.90;;;;;;4993883;28;20176;-72
2023/01/11 05:06:32;;;;;;;0.53;0.47;;;8.40;99.90;;;;;;4994551;28;20184;-72
2023/01/11 05:08:58;;;;;;;1.47;0.53;;;8.40;99.90;;;;;;4993927;28;20184;-72
2023/01/11 05:11:23;;;;;;;1.00;0.50;;;8.40;99.90;;;;;;4993531;28;20217;-72
2023/01/11 05:13:49;;;;;;;0.50;0.40;;;8.30;99.90;;;;;;4993857;28;20182;-72
2023/01/11 05:16:19;;;;;;;2.10;0.50;;;8.30;99.90;;;;;;4993738;28;20195;-72
2023/01/11 05:18:50;;;;;;;1.70;0.40;;;8.30;99.90;;;;;;4993983;28;20429;-73
2023/01/11 05:21:18;;;;;;;0.40;0.30;;;8.30;99.90;;;;;;4993341;28;20534;-71
2023/01/11 05:23:44;;;;;;;0.90;0.40;;;8.20;99.90;;;;;;4993700;28;20420;-72
2023/01/11 05:26:16;;;;;;;0.60;0.40;;;8.20;99.90;;;;;;4993622;28;20418;-72
2023/01/11 05:28:42;;;;;;;0.60;0.40;;;8.20;99.90;;;;;;4993732;28;20409;-73
2023/01/11 05:31:08;;;;;;;0.50;0.40;;;8.20;99.90;;;;;;4992874;28;20837;-72
2023/01/11 05:33:34;;;;;;;0.60;0.43;;;8.20;99.90;;;;;;4993830;28;20424;-73
2023/01/11 05:36:05;;;;;;;1.47;0.50;;;8.20;99.90;;;;;;4993503;28;20222;-73
2023/01/11 05:38:30;;;;;;;2.37;0.83;;;8.20;99.90;;;;;;4993742;28;20177;-73
2023/01/11 05:40:58;;;;;;;0.90;0.50;;;8.10;99.90;;;;;;4993234;28;20494;-73
2023/01/11 05:43:24;;;;;;;2.50;0.50;;;8.10;99.90;;;;;;4992939;28;20187;-73
2023/01/11 05:45:49;;;;;;;0.90;0.60;;;8.00;99.90;;;;;;4993369;28;20429;-73
2023/01/11 05:48:15;;;;;;;0.83;0.50;;;8.10;99.90;;;;;;4993047;28;20197;-73
2023/01/11 05:50:41;;;;;;;0.57;0.57;;;8.10;99.90;;;;;;4993146;28;20770;-72
2023/01/11 05:53:06;;;;;;;0.50;0.50;;;8.10;99.90;;;;;;4992906;28;20421;-73
2023/01/11 05:55:32;;;;;;;2.10;0.60;;;8.10;99.90;;;;;;4993297;28;20704;-73
2023/01/11 05:57:57;;;;;;;1.40;0.40;;;8.10;99.90;;;;;;4992217;28;20188;-73
2023/01/11 06:00:23;;;;;;;0.83;0.60;;;8.10;99.90;;;;;;4993348;28;20187;-73
2023/01/11 06:02:48;;;;;;;1.23;0.50;;;8.00;99.90;;;;;;4992835;28;20224;-73
2023/01/11 06:05:14;;;;;;;1.53;0.50;;;8.00;99.90;;;;;;4992921;28;20227;-73
2023/01/11 06:07:40;;;;;;;0.60;0.50;;;8.00;99.90;;;;;;4993009;28;20209;-73
2023/01/11 06:10:06;;;;;;;0.50;0.50;;;8.10;99.90;;;;;;4992859;28;20948;-73
2023/01/11 06:12:32;;;;;;;0.80;0.50;;;8.10;99.90;;;;;;4993726;28;20205;-73
2023/01/11 06:14:57;;;;;;;0.60;0.40;;;8.00;99.90;;;;;;4994489;28;21090;-73
2023/01/11 06:17:23;;;;;;;0.50;0.40;;;8.10;99.90;;;;;;4998910;28;20179;-73
2023/01/11 06:19:48;;;;;;;0.93;0.77;;;8.00;99.90;;;;;;5012045;28;20178;-73
2023/01/11 06:22:14;;;;;;;0.90;0.50;;;8.10;99.90;;;;;;5011805;28;20277;-73
2023/01/11 06:24:39;;;;;;;0.60;0.40;;;8.10;99.90;;;;;;5012050;28;20176;-73
2023/01/11 06:27:04;;;;;;;0.93;0.57;;;8.10;99.90;;;;;;5011971;28;20209;-73
2023/01/11 06:29:30;;;;;;;1.33;0.50;;;8.00;99.90;;;;;;5012217;28;20734;-73
2023/01/11 06:31:57;;;;;;;1.73;0.60;;;7.90;99.90;;;;;;5011591;28;20215;-73
2023/01/11 06:34:22;;;;;;;1.93;0.53;;;7.90;99.90;;;;;;5011780;28;20259;-73
2023/01/11 06:36:48;;;;;;;0.77;0.40;;;7.80;99.90;;;;;;5010295;28;20500;-72
2023/01/11 06:39:13;;;;;;;2.40;0.50;;;7.80;99.90;;;;;;5009885;28;20187;-72
2023/01/11 06:41:39;;;;;;;0.60;0.50;;;7.90;99.90;;;;;;5010062;28;20228;-73
2023/01/11 06:44:05;;;;;;;1.20;0.53;;;8.00;99.90;;;;;;5009925;28;20244;-73
2023/01/11 06:46:30;;;;;;;0.60;0.57;;;8.00;99.90;;;;;;5010319;28;20598;-73
2023/01/11 06:48:56;;;;;;;0.80;0.80;;;8.00;99.90;;;;;;5010076;28;20592;-74
2023/01/11 06:51:21;;;;;;;3.80;0.60;;;8.00;99.90;;;;;;5011056;28;20216;-75
2023/01/11 06:53:47;;;;;;;2.03;0.50;;;8.10;99.90;;;;;;5011987;28;20284;-73
2023/01/11 06:56:15;;;;;;;1.00;0.53;;;8.10;99.90;;;;;;5012054;28;20251;-73
2023/01/11 06:58:40;;;;;;;0.70;0.60;;;8.10;99.90;;;;;;5011962;28;20252;-73
2023/01/11 07:01:06;;;;;;;0.70;0.50;;;8.00;99.90;;;;;;5011806;28;20563;-71
2023/01/11 07:03:32;;;;;;;0.63;0.50;;;8.00;99.90;;;;;;5011779;28;20647;-72
2023/01/11 07:05:57;;;;;;;1.47;0.50;;;8.00;99.90;;;;;;5011877;28;20176;-73
2023/01/11 07:08:24;;;;;;;0.60;0.50;;;7.90;99.90;;;;;;5011738;28;20204;-73
2023/01/11 07:10:49;;;;;;;2.10;0.50;;;8.00;99.90;;;;;;5011554;28;20291;-72
2023/01/11 07:13:16;;;;;;;1.27;0.50;;;8.00;99.90;;;;;;5011234;28;20548;-72
2023/01/11 07:15:42;;;;;;;3.20;0.60;;;8.10;99.90;;;;;;5011603;28;20168;-71
2023/01/11 07:18:09;;;;;;;0.80;0.50;;;8.20;99.90;;;;;;5011399;28;20409;-72
2023/01/11 07:20:34;;;;;;;4.57;3.33;;;8.30;99.90;;;;;;5011437;28;20421;-72
2023/01/11 07:23:01;;;;;;;0.90;0.50;;;8.30;99.90;;;;;;5011265;28;20452;-72
2023/01/11 07:25:28;;;;;;;0.90;0.50;;;8.50;99.90;;;;;;5011541;28;20189;-72
2023/01/11 07:28:01;;;;;;;0.90;0.50;;;8.60;99.90;;;;;;5011594;28;20415;-72
2023/01/11 07:30:29;;;;;;;1.00;0.50;;;8.70;99.90;;;;;;5011321;28;20481;-72
2023/01/11 07:32:57;;;;;;;0.90;0.50;;;8.80;99.90;;;;;;5011195;28;20531;-71
2023/01/11 07:35:22;;;;;;;2.70;0.80;;;8.90;99.90;;;;;;5011179;28;20434;-71
2023/01/11 07:37:48;;;;;;;0.93;0.50;;;8.90;99.90;;;;;;5011401;28;20444;-71
2023/01/11 07:40:16;;;;;;;0.80;0.40;;;9.00;99.90;;;;;;5011350;28;20184;-71
2023/01/11 07:45:33;;;;;;;0.70;0.43;;;9.10;99.90;;;;;;5011706;28;20416;-72
2023/01/11 07:47:59;;;;;;;0.70;0.50;;;9.30;99.90;;;;;;5011223;28;20409;-71
2023/01/11 07:50:24;;;;;;;9.77;5.93;;;9.30;99.90;;;;;;5010874;28;20527;-71
2023/01/11 07:52:50;;;;;;;1.63;0.70;;;9.30;99.90;;;;;;5011076;28;20280;-71
2023/01/11 07:55:15;;;;;;;0.77;0.50;;;9.30;99.90;;;;;;5011024;28;20198;-71
2023/01/11 07:57:41;;;;;;;0.80;0.50;;;9.30;99.90;;;;;;5011279;28;20174;-71
2023/01/11 08:00:08;;;;;;;0.73;0.50;;;9.40;99.90;;;;;;5010931;28;20256;-71
2023/01/11 08:02:33;;;;;;;0.67;0.43;;;9.50;99.90;;;;;;5010792;28;20197;-71
2023/01/11 08:04:59;;;;;;;1.00;0.50;;;9.50;99.90;;;;;;5011176;28;20415;-71
2023/01/11 08:07:24;;;;;;;1.07;0.50;;;9.60;99.90;;;;;;5011075;28;20181;-71
2023/01/11 08:09:50;;;;;;;2.13;0.47;;;9.70;99.90;;;;;;5010956;28;20179;-71
2023/01/11 08:15:00;;;;;;;0.80;0.47;;;9.80;99.90;;;;;;5011965;28;20190;-72
2023/01/11 08:17:25;;;;;;;2.60;0.50;;;9.80;99.90;;;;;;5011781;28;20409;-72
2023/01/11 08:19:51;;;;;;;2.20;0.50;;;9.90;99.90;;;;;;5011151;28;20573;-71
2023/01/11 08:22:17;;;;;;;1.43;0.57;;;9.90;99.90;;;;;;5013635;28;20206;-72
2023/01/11 08:24:43;;;;;;;1.03;0.57;;;9.90;99.90;;;;;;5014490;28;20175;-71
2023/01/11 08:27:08;;;;;;;0.80;0.50;;;10.00;99.90;;;;;;5014467;28;20233;-71
2023/01/11 08:29:34;;;;;;;0.87;0.50;;;10.00;99.90;;;;;;5014474;28;20413;-71
2023/01/11 08:31:59;;;;;;;2.00;0.60;;;10.00;99.90;;;;;;5014229;28;20737;-71
2023/01/11 08:34:29;;;;;;;1.00;0.60;;;10.00;99.90;;;;;;5014196;28;20182;-72
2023/01/11 08:37:00;;;;;;;1.30;0.50;;;10.10;99.90;;;;;;5014362;28;20257;-71
2023/01/11 08:39:29;;;;;;;0.90;0.50;;;10.10;99.90;;;;;;4996457;28;20496;-72
2023/01/11 08:41:58;;;;;;;2.80;0.50;;;10.10;99.90;;;;;;5014006;28;20441;-70
2023/01/11 08:44:24;;;;;;;0.60;0.40;;;10.20;99.90;;;;;;5014056;28;20471;-70
2023/01/11 08:46:49;;;;;;;0.80;0.50;;;10.20;99.90;;;;;;5014370;28;20417;-70
2023/01/11 08:49:15;;;;;;;0.70;0.50;;;10.20;99.90;;;;;;5013911;28;20170;-71
2023/01/11 08:51:41;;;;;;;0.70;0.60;;;10.20;99.90;;;;;;5013721;28;20617;-71
2023/01/11 08:54:12;;;;;;;2.10;0.50;;;10.20;99.90;;;;;;5013570;28;20185;-71
2023/01/11 08:56:38;;;;;;;1.17;0.63;;;10.20;99.90;;;;;;5014136;28;20402;-71
2023/01/11 08:59:05;;;;;;;0.70;0.50;;;10.30;99.90;;;;;;5013708;28;20413;-71
2023/01/11 09:01:31;;;;;;;2.37;0.60;;;10.40;99.90;;;;;;5013677;28;20679;-71
2023/01/11 09:03:56;;;;;;;1.90;0.50;;;10.40;99.90;;;;;;5013646;28;20413;-71
2023/01/11 09:06:22;;;;;;;1.17;0.60;;;10.50;99.90;;;;;;5013669;28;20439;-71
2023/01/11 09:08:48;;;;;;;0.80;0.50;;;10.50;99.90;;;;;;5013909;28;20183;-71
2023/01/11 09:13:58;;;;;;;0.70;0.50;;;10.60;99.90;;;;;;5013822;28;20205;-71
2023/01/11 09:16:23;;;;;;;1.20;0.60;;;10.70;99.90;;;;;;5013698;28;20525;-70
2023/01/11 09:18:49;;;;;;;0.70;0.50;;;10.60;99.90;;;;;;5013592;28;20174;-71
2023/01/11 09:21:15;;;;;;;1.00;0.50;;;10.70;99.90;;;;;;5013085;28;20245;-70
2023/01/11 09:23:40;;;;;;;1.13;0.50;;;10.70;99.90;;;;;;5013546;28;20213;-70
2023/01/11 09:26:06;;;;;;;1.07;0.50;;;10.80;99.90;;;;;;5013383;28;20175;-71
2023/01/11 09:28:31;;;;;;;0.80;0.60;;;10.80;99.90;;;;;;5013587;28;20183;-70
2023/01/11 09:30:57;;;;;;;2.13;0.70;;;10.80;99.90;;;;;;5012973;28;20268;-71
2023/01/11 09:33:22;;;;;;;0.60;0.50;;;10.80;99.90;;;;;;5012370;28;20722;-71
2023/01/11 09:35:50;;;;;;;1.17;0.60;;;10.80;99.90;;;;;;5013593;28;20190;-71
2023/01/11 09:38:16;;;;;;;0.90;0.50;;;10.80;99.90;;;;;;5013303;28;20651;-71
2023/01/11 09:40:44;;;;;;;2.73;0.50;;;10.80;99.90;;;;;;5013502;28;20421;-70
2023/01/11 09:43:13;;;;;;;0.70;0.47;;;10.80;99.90;;;;;;5013514;28;20663;-71
2023/01/11 09:45:45;;;;;;;0.60;0.50;;;10.80;99.90;;;;;;5013048;28;20417;-71
2023/01/11 09:48:29;;;;;;;0.77;0.50;;;10.90;99.90;;;;;;5013079;28;20422;-71
2023/01/11 09:50:56;;;;;;;0.70;0.50;;;10.90;99.90;;;;;;5012827;28;20449;-71
2023/01/11 09:53:30;;;;;;;0.70;0.50;;;10.90;99.90;;;;;;5012774;28;20416;-71
2023/01/11 09:55:58;;;;;;;0.60;0.50;;;10.90;99.90;;;;;;5012988;28;20496;-71
2023/01/11 09:58:47;;;;;;;1.20;1.10;;;10.90;99.90;;;;;;5011707;28;20834;-71
2023/01/11 10:01:45;;;;;;;0.80;0.60;;;10.90;99.90;;;;;;5012496;28;20439;-71
2023/01/11 10:04:40;;;;;;;0.80;0.60;;;10.90;99.90;;;;;;5012702;28;20417;-71
2023/01/11 10:07:48;;;;;;;0.60;0.50;;;10.90;99.90;;;;;;5012548;28;20410;-71
2023/01/11 10:10:50;;;;;;;4.17;0.50;;;10.90;99.90;;;;;;4999605;28;20437;-71
2023/01/11 10:13:41;;;;;;;1.83;0.50;;;10.90;99.90;;;;;;5012361;28;20941;-70
2023/01/11 10:16:54;;;;;;;1.13;0.50;;;10.90;99.90;;;;;;5012414;28;20410;-71
2023/01/11 10:19:34;;;;;;;0.60;0.60;;;11.00;99.90;;;;;;5013678;28;20444;-71
2023/01/11 10:22:10;;;;;;;0.77;0.50;;;11.00;99.90;;;;;;5012621;28;20425;-71
2023/01/11 10:24:48;;;;;;;1.33;0.60;;;11.00;99.90;;;;;;5012794;28;20405;-70
2023/01/11 10:27:28;;;;;;;0.70;0.60;;;11.10;99.90;;;;;;5012372;28;20421;-70
2023/01/11 10:33:13;;;;;;;0.60;0.40;;;11.20;99.90;;;;;;5011850;28;20476;-71
2023/01/11 10:38:42;;;;;;;0.60;0.50;;;11.10;99.90;;;;;;5012113;28;20808;-72
2023/01/11 10:41:24;;;;;;;1.10;0.60;;;11.10;99.90;;;;;;5011681;28;20444;-71
2023/01/11 10:44:02;;;;;;;0.67;0.50;;;11.10;99.90;;;;;;5011630;28;20413;-71
2023/01/11 10:46:30;;;;;;;0.60;0.50;;;11.20;99.90;;;;;;5012206;28;20413;-73
2023/01/11 10:49:08;;;;;;;0.60;0.50;;;11.20;99.90;;;;;;5011923;28;20440;-72
2023/01/11 10:51:43;;;;;;;1.10;0.60;;;11.20;99.90;;;;;;4994121;28;20465;-71
2023/01/11 10:54:12;;;;;;;0.90;0.50;;;11.20;99.90;;;;;;5011635;28;20409;-72
2023/01/11 10:56:50;;;;;;;1.20;0.60;;;11.20;99.90;;;;;;5011771;28;20921;-72
2023/01/11 10:59:49;;;;;;;0.73;0.50;;;11.20;99.90;;;;;;5011585;28;20528;-72
2023/01/11 11:02:33;;;;;;;1.17;0.40;;;11.20;99.90;;;;;;5011474;28;20433;-71
2023/01/11 11:05:06;;;;;;;0.60;0.50;;;11.20;99.90;;;;;;5011484;28;20414;-72
2023/01/11 11:07:57;;;;;;;0.60;0.60;;;11.20;99.90;;;;;;5011656;28;20496;-72
2023/01/11 11:10:28;;;;;;;1.07;0.70;;;11.20;99.90;;;;;;5011327;28;20508;-71
2023/01/11 11:13:10;;;;;;;1.30;0.60;;;11.10;99.90;;;;;;5011650;28;20429;-71
2023/01/11 11:15:41;;;;;;;0.60;0.50;;;11.20;99.90;;;;;;5011409;28;20445;-71
2023/01/11 11:18:07;;;;;;;1.10;0.57;;;11.20;99.90;;;;;;5011404;28;20410;-71
2023/01/11 11:20:33;;;;;;;1.43;0.50;;;11.20;99.90;;;;;;5011503;28;20987;-71
2023/01/11 11:22:59;;;;;;;0.97;0.87;;;11.10;99.90;;;;;;5011110;28;20253;-71
2023/01/11 11:25:32;;;;;;;0.50;0.50;;;11.20;99.90;;;;;;5011446;28;20833;-71
2023/01/11 11:28:02;;;;;;;32.13;3.33;;;11.20;99.90;;;;;;5011384;28;20421;-71
2023/01/11 11:30:36;;;;;;;2.40;0.60;;;11.20;99.90;;;;;;5011314;28;20414;-71
2023/01/11 11:33:28;;;;;;;1.03;0.50;;;11.20;99.90;;;;;;5011182;28;20464;-71
2023/01/11 11:36:03;;;;;;;1.00;0.60;;;11.20;99.90;;;;;;5010988;28;20452;-71
2023/01/11 11:38:31;;;;;;;1.17;0.50;;;11.30;99.90;;;;;;5011496;28;20398;-71
2023/01/11 11:41:02;;;;;;;1.13;0.50;;;11.30;99.90;;;;;;5011081;28;20531;-72
2023/01/11 11:43:28;;;;;;;0.90;0.70;;;11.40;99.90;;;;;;5011053;28;20489;-71
2023/01/11 11:45:57;;;;;;;0.97;0.53;;;11.40;99.90;;;;;;5011487;28;20556;-71
2023/01/11 11:48:24;;;;;;;2.60;0.50;;;11.50;99.90;;;;;;5010960;28;20780;-71
2023/01/11 11:50:51;;;;;;;1.00;0.60;;;11.40;99.90;;;;;;4991290;28;20873;-71
2023/01/11 11:53:21;;;;;;;1.10;0.50;;;11.40;99.90;;;;;;4991157;28;20782;-71
2023/01/11 11:55:47;;;;;;;1.63;0.60;;;11.40;99.90;;;;;;4992417;28;20497;-72
2023/01/11 11:58:20;;;;;;;7.43;0.67;;;11.30;99.90;;;;;;4995638;28;20529;-72
2023/01/11 12:00:49;;;;;;;1.00;0.57;;;11.30;99.90;;;;;;4995502;28;20247;-71
2023/01/11 12:03:20;;;;;;;1.37;0.70;;;11.30;99.90;;;;;;4995046;28;20978;-71
2023/01/11 12:05:56;;;;;;;1.33;0.67;;;11.30;99.90;;;;;;4995069;28;20410;-69
2023/01/11 12:08:23;;;;;;;1.03;0.60;;;11.30;99.90;;;;;;4994994;28;20430;-71
2023/01/11 12:10:56;;;;;;;2.40;0.50;;;11.30;99.90;;;;;;4994526;28;20545;-71
2023/01/11 12:13:31;;;;;;;1.43;0.70;;;11.30;99.90;;;;;;4993846;28;20461;-71
2023/01/11 12:16:00;;;;;;;1.10;0.50;;;11.20;99.90;;;;;;4994994;28;20421;-71
2023/01/11 12:18:36;;;;;;;1.40;0.67;;;11.20;99.90;;;;;;4995177;28;20409;-71
2023/01/11 12:21:21;;;;;;;1.00;0.60;;;11.20;99.90;;;;;;4994810;28;20888;-71
2023/01/11 12:24:07;;;;;;;1.03;0.63;;;11.20;99.90;;;;;;4995771;28;20904;-72
2023/01/11 12:26:43;;;;;;;1.30;0.60;;;11.20;99.90;;;;;;4995971;28;20796;-72
2023/01/11 12:29:26;;;;;;;1.47;0.60;;;11.20;99.90;;;;;;4995058;28;20501;-71
2023/01/11 12:31:58;;;;;;;1.20;0.70;;;11.20;99.90;;;;;;4994101;28;20894;-71
2023/01/11 12:34:33;;;;;;;1.30;0.60;;;11.20;99.90;;;;;;4994501;28;20476;-72
2023/01/11 12:37:45;;;;;;;1.43;0.50;;;11.20;99.90;;;;;;4994334;28;20406;-71
2023/01/11 12:40:32;;;;;;;1.83;0.60;;;11.20;99.90;;;;;;4994384;28;20557;-71
2023/01/11 12:43:24;;;;;;;1.43;0.50;;;11.20;99.90;;;;;;4994073;28;20808;-71
2023/01/11 12:46:10;;;;;;;0.90;0.50;;;11.30;99.90;;;;;;4989417;28;20513;-71
2023/01/11 12:49:00;;;;;;;2.03;0.60;;;11.30;99.90;;;;;;4994626;28;20923;-72
2023/01/11 12:51:50;;;;;;;2.50;0.77;;;11.30;99.90;;;;;;4993490;28;20466;-72
2023/01/11 12:54:41;;;;;;;1.20;0.60;;;11.30;99.90;;;;;;4993858;28;20422;-72
2023/01/11 12:57:18;;;;;;;4.10;0.60;;;11.30;99.90;;;;;;4993866;28;20462;-72
2023/01/11 13:00:20;;;;;;;1.20;0.60;;;11.20;99.90;;;;;;4994215;28;20418;-72
2023/01/11 13:03:22;;;;;;;2.30;0.63;;;11.20;99.90;;;;;;4993981;28;20441;-72
2023/01/11 13:05:59;;;;;;;1.57;0.50;;;11.10;99.90;;;;;;4994161;28;20406;-72
2023/01/11 13:08:39;;;;;;;1.00;0.50;;;11.00;99.90;;;;;;4993646;28;20418;-72
2023/01/11 13:11:37;;;;;;;2.93;0.80;;;11.00;99.90;;;;;;4993681;28;20468;-71
2023/01/11 13:14:26;;;;;;;290.77;35.40;;;10.90;99.90;;;;;;4993927;28;20407;-72
2023/01/11 13:17:14;;;;;;;2.10;0.53;;;10.90;99.90;;;;;;4994491;28;20735;-72
2023/01/11 13:20:15;;;;;;;1.70;0.50;;;10.90;99.90;;;;;;4994108;28;20953;-71
2023/01/11 13:22:51;;;;;;;5.00;3.00;;;11.00;99.90;;;;;;4993953;28;20525;-72
2023/01/11 13:25:22;;;;;;;3.33;1.43;;;11.10;99.90;;;;;;4993935;28;20444;-72
2023/01/11 13:27:49;;;;;;;3.53;1.10;;;11.10;99.90;;;;;;4994597;28;20403;-72
2023/01/11 13:30:16;;;;;;;3.80;2.90;;;11.10;99.90;;;;;;4993731;28;20858;-72
2023/01/11 13:32:50;;;;;;;3.10;0.93;;;11.20;99.90;;;;;;4993431;28;20461;-72
2023/01/11 13:35:30;;;;;;;3.07;0.77;;;11.00;99.90;;;;;;4993328;28;20952;-72
2023/01/11 13:38:18;;;;;;;2.57;1.20;;;11.00;99.90;;;;;;4993772;28;20399;-72
2023/01/11 13:40:51;;;;;;;4.00;0.80;;;11.00;99.90;;;;;;4993511;28;20414;-71
2023/01/11 13:43:40;;;;;;;3.10;1.03;;;11.00;99.90;;;;;;4993320;28;20421;-72
2023/01/11 13:46:40;;;;;;;1.60;0.60;;;11.00;99.90;;;;;;4993288;28;20415;-73
2023/01/11 13:49:23;;;;;;;2.10;0.77;;;11.00;99.90;;;;;;4985517;28;20477;-72
2023/01/11 13:52:02;;;;;;;3.90;1.30;;;11.00;99.90;;;;;;4993024;28;20465;-73
2023/01/11 13:54:36;;;;;;;3.40;1.20;;;10.90;99.90;;;;;;4993229;28;20502;-73
2023/01/11 13:57:24;;;;;;;4.47;2.40;;;10.90;99.90;;;;;;4993065;28;20771;-73
2023/01/11 13:59:56;;;;;;;2.20;0.80;;;10.80;99.90;;;;;;4993127;28;20927;-73
2023/01/11 14:02:49;;;;;;;3.07;0.80;;;10.70;99.90;;;;;;4992694;28;20814;-72
2023/01/11 14:05:20;;;;;;;2.20;0.83;;;10.60;99.90;;;;;;4992998;28;20510;-71
2023/01/11 14:08:27;;;;;;;2.37;0.60;;;10.60;99.90;;;;;;4994481;28;20418;-73
2023/01/11 14:11:24;;;;;;;167.47;9.83;;;10.60;99.90;;;;;;4894627;29;20474;-71
2023/01/11 14:14:26;;;;;;;1.30;0.80;;;10.60;99.90;;;;;;4894869;29;20469;-71
2023/01/11 14:17:04;;;;;;;0.70;0.60;;;10.60;99.90;;;;;;4984803;28;20412;-71
2023/01/11 14:19:36;;;;;;;1.07;0.70;;;10.60;99.90;;;;;;4992263;28;20410;-71
2023/01/11 14:22:19;;;;;;;1.00;0.80;;;10.60;99.90;;;;;;4992394;28;20433;-71
2023/01/11 14:25:00;;;;;;;1.10;0.83;;;10.60;99.90;;;;;;4992628;28;20441;-72
2023/01/11 14:27:54;;;;;;;0.73;0.73;;;10.50;99.90;;;;;;4992755;28;20414;-72
2023/01/11 14:30:52;;;;;;;3.63;1.00;;;10.50;99.90;;;;;;4992622;28;20950;-72
2023/01/11 14:33:17;;;;;;;2.60;0.80;;;10.50;99.90;;;;;;4992305;28;20517;-72
2023/01/11 14:36:02;;;;;;;1.43;0.60;;;10.50;99.90;;;;;;4992606;28;20939;-72
2023/01/11 14:38:49;;;;;;;29.27;10.60;;;10.50;99.90;;;;;;4992481;28;20517;-73
2023/01/11 14:42:05;;;;;;;1.83;0.60;;;10.50;99.90;;;;;;4992774;28;20480;-70
2023/01/11 14:45:27;;;;;;;0.90;0.50;;;10.40;99.90;;;;;;4951285;28;20429;-72
2023/01/11 14:47:57;;;;;;;2.90;1.40;;;10.40;99.90;;;;;;4998112;28;20441;-74
2023/01/11 14:50:40;;;;;;;16.37;11.20;;;10.20;99.90;;;;;;5031624;28;20413;-71
2023/01/11 14:53:10;;;;;;;1.17;0.90;;;10.20;99.90;;;;;;5031364;28;20837;-71
2023/01/11 14:55:49;;;;;;;5.23;3.60;;;10.20;99.90;;;;;;5031699;28;20474;-71
2023/01/11 14:58:17;;;;;;;1.00;0.90;;;10.10;99.90;;;;;;5031273;28;20413;-71
2023/01/11 15:00:42;;;;;;;1.23;0.70;;;10.10;99.90;;;;;;5019143;28;20659;-71
2023/01/11 15:03:28;;;;;;;0.50;0.50;;;10.10;99.90;;;;;;5011431;28;20923;-72
2023/01/11 15:06:15;;;;;;;0.57;0.53;;;10.10;99.90;;;;;;5011388;28;20186;-72
2023/01/11 15:08:50;;;;;;;2.60;0.90;;;10.10;99.90;;;;;;5012028;28;20812;-72